sensor_id;sensor_type;location;lat;lon;timestamp;P1;durP1;ratioP1;P2;durP2;ratioP2
21196;SDS011;10756;51.014;3.786;2022-07-04T00:02:07;0.10;;;0.10;;
21196;SDS011;10756;51.014;3.786;2022-07-04T00:04:32;0.15;;;0.15;;
21196;SDS011;10756;51.014;3.786;2022-07-04T00:06:58;0.10;;;0.10;;
21196;SDS011;10756;51.014;3.786;2022-07-04T00:09:24;0.10;;;0.10;;
21196;SDS011;10756;51.014;3.786;2022-07-04T00:11:49;0.10;;;0.10;;
21196;SDS011;10756;51.014;3.786;2022-07-04T00:14:15;0.10;;;0.10;;
21196;SDS011;10756;51.014;3.786;2022-07-04T00:16:40;0.10;;;0.10;;
21196;SDS011;10756;51.014;3.786;2022-07-04T00:19:06;0.28;;;0.28;;
21196;SDS011;10756;51.014;3.786;2022-07-04T00:21:32;0.10;;;0.10;;
21196;SDS011;10756;51.014;3.786;2022-07-04T00:23:57;0.10;;;0.10;;
21196;SDS011;10756;51.014;3.786;2022-07-04T00:26:24;0.10;;;0.10;;
21196;SDS011;10756;51.014;3.786;2022-07-04T00:28:49;0.10;;;0.10;;
21196;SDS011;10756;51.014;3.786;2022-07-04T00:31:15;0.45;;;0.45;;
21196;SDS011;10756;51.014;3.786;2022-07-04T00:33:40;3.35;;;0.45;;
21196;SDS011;10756;51.014;3.786;2022-07-04T00:36:06;0.10;;;0.10;;
21196;SDS011;10756;51.014;3.786;2022-07-04T00:38:32;0.88;;;0.45;;
21196;SDS011;10756;51.014;3.786;2022-07-04T00:40:57;0.20;;;0.20;;
21196;SDS011;10756;51.014;3.786;2022-07-04T00:43:24;0.20;;;0.20;;
21196;SDS011;10756;51.014;3.786;2022-07-04T00:45:50;2.22;;;2.05;;
21196;SDS011;10756;51.014;3.786;2022-07-04T00:48:16;0.10;;;0.10;;
21196;SDS011;10756;51.014;3.786;2022-07-04T00:50:43;0.10;;;0.10;;
21196;SDS011;10756;51.014;3.786;2022-07-04T00:53:11;0.10;;;0.10;;
21196;SDS011;10756;51.014;3.786;2022-07-04T00:55:41;0.20;;;0.20;;
21196;SDS011;10756;51.014;3.786;2022-07-04T00:58:07;0.10;;;0.10;;
21196;SDS011;10756;51.014;3.786;2022-07-04T01:00:34;0.10;;;0.10;;
21196;SDS011;10756;51.014;3.786;2022-07-04T01:02:59;0.10;;;0.10;;
21196;SDS011;10756;51.014;3.786;2022-07-04T01:05:25;0.10;;;0.10;;
21196;SDS011;10756;51.014;3.786;2022-07-04T01:07:51;0.10;;;0.10;;
21196;SDS011;10756;51.014;3.786;2022-07-04T01:10:17;0.10;;;0.10;;
21196;SDS011;10756;51.014;3.786;2022-07-04T01:12:42;0.10;;;0.10;;
21196;SDS011;10756;51.014;3.786;2022-07-04T01:15:08;0.20;;;0.20;;
21196;SDS011;10756;51.014;3.786;2022-07-04T01:17:34;0.40;;;0.40;;
21196;SDS011;10756;51.014;3.786;2022-07-04T01:20:00;0.10;;;0.10;;
21196;SDS011;10756;51.014;3.786;2022-07-04T01:22:26;0.10;;;0.10;;
21196;SDS011;10756;51.014;3.786;2022-07-04T01:24:52;0.22;;;0.22;;
21196;SDS011;10756;51.014;3.786;2022-07-04T01:27:17;0.10;;;0.10;;
21196;SDS011;10756;51.014;3.786;2022-07-04T01:29:43;0.30;;;0.30;;
21196;SDS011;10756;51.014;3.786;2022-07-04T01:32:09;0.17;;;0.17;;
21196;SDS011;10756;51.014;3.786;2022-07-04T01:34:35;0.30;;;0.30;;
21196;SDS011;10756;51.014;3.786;2022-07-04T01:37:02;0.10;;;0.10;;
21196;SDS011;10756;51.014;3.786;2022-07-04T01:39:28;0.20;;;0.20;;
21196;SDS011;10756;51.014;3.786;2022-07-04T01:41:54;0.25;;;0.25;;
21196;SDS011;10756;51.014;3.786;2022-07-04T01:44:20;0.10;;;0.10;;
21196;SDS011;10756;51.014;3.786;2022-07-04T01:46:46;0.10;;;0.10;;
21196;SDS011;10756;51.014;3.786;2022-07-04T01:49:12;0.43;;;0.43;;
21196;SDS011;10756;51.014;3.786;2022-07-04T01:51:47;0.52;;;0.52;;
21196;SDS011;10756;51.014;3.786;2022-07-04T01:54:13;0.10;;;0.10;;
21196;SDS011;10756;51.014;3.786;2022-07-04T01:56:39;1.05;;;1.05;;
21196;SDS011;10756;51.014;3.786;2022-07-04T01:59:05;0.10;;;0.10;;
21196;SDS011;10756;51.014;3.786;2022-07-04T02:01:31;0.10;;;0.10;;
21196;SDS011;10756;51.014;3.786;2022-07-04T02:03:58;0.30;;;0.30;;
21196;SDS011;10756;51.014;3.786;2022-07-04T02:06:25;0.10;;;0.10;;
21196;SDS011;10756;51.014;3.786;2022-07-04T02:08:51;0.10;;;0.10;;
21196;SDS011;10756;51.014;3.786;2022-07-04T02:11:28;0.17;;;0.17;;
21196;SDS011;10756;51.014;3.786;2022-07-04T02:14:14;0.05;;;0.05;;
21196;SDS011;10756;51.014;3.786;2022-07-04T02:17:00;0.70;;;0.45;;
21196;SDS011;10756;51.014;3.786;2022-07-04T02:19:26;0.60;;;0.32;;
21196;SDS011;10756;51.014;3.786;2022-07-04T02:21:52;0.10;;;0.10;;
21196;SDS011;10756;51.014;3.786;2022-07-04T02:24:17;0.52;;;0.52;;
21196;SDS011;10756;51.014;3.786;2022-07-04T02:26:44;0.10;;;0.10;;
21196;SDS011;10756;51.014;3.786;2022-07-04T02:32:00;0.20;;;0.20;;
21196;SDS011;10756;51.014;3.786;2022-07-04T02:34:33;0.30;;;0.30;;
21196;SDS011;10756;51.014;3.786;2022-07-04T02:36:58;0.10;;;0.10;;
21196;SDS011;10756;51.014;3.786;2022-07-04T02:39:27;0.20;;;0.20;;
21196;SDS011;10756;51.014;3.786;2022-07-04T02:41:53;0.10;;;0.10;;
21196;SDS011;10756;51.014;3.786;2022-07-04T02:44:18;1.15;;;0.63;;
21196;SDS011;10756;51.014;3.786;2022-07-04T02:46:44;1.45;;;0.73;;
21196;SDS011;10756;51.014;3.786;2022-07-04T02:49:10;3.13;;;0.80;;
21196;SDS011;10756;51.014;3.786;2022-07-04T02:51:36;5.45;;;1.00;;
21196;SDS011;10756;51.014;3.786;2022-07-04T02:54:01;0.45;;;0.30;;
21196;SDS011;10756;51.014;3.786;2022-07-04T02:56:28;0.30;;;0.30;;
21196;SDS011;10756;51.014;3.786;2022-07-04T02:58:53;0.10;;;0.10;;
21196;SDS011;10756;51.014;3.786;2022-07-04T03:01:19;1.60;;;1.13;;
21196;SDS011;10756;51.014;3.786;2022-07-04T03:03:45;0.20;;;0.20;;
21196;SDS011;10756;51.014;3.786;2022-07-04T03:06:15;0.50;;;0.40;;
21196;SDS011;10756;51.014;3.786;2022-07-04T03:08:46;2.75;;;0.32;;
21196;SDS011;10756;51.014;3.786;2022-07-04T03:11:12;2.78;;;2.63;;
21196;SDS011;10756;51.014;3.786;2022-07-04T03:13:39;2.20;;;0.40;;
21196;SDS011;10756;51.014;3.786;2022-07-04T03:16:05;0.10;;;0.10;;
21196;SDS011;10756;51.014;3.786;2022-07-04T03:18:31;0.10;;;0.10;;
21196;SDS011;10756;51.014;3.786;2022-07-04T03:20:57;0.25;;;0.25;;
21196;SDS011;10756;51.014;3.786;2022-07-04T03:23:22;0.10;;;0.10;;
21196;SDS011;10756;51.014;3.786;2022-07-04T03:25:48;0.13;;;0.13;;
21196;SDS011;10756;51.014;3.786;2022-07-04T03:28:13;0.35;;;0.35;;
21196;SDS011;10756;51.014;3.786;2022-07-04T03:30:39;2.35;;;1.13;;
21196;SDS011;10756;51.014;3.786;2022-07-04T03:33:05;2.35;;;0.85;;
21196;SDS011;10756;51.014;3.786;2022-07-04T03:35:31;0.10;;;0.10;;
21196;SDS011;10756;51.014;3.786;2022-07-04T03:37:56;1.58;;;0.73;;
21196;SDS011;10756;51.014;3.786;2022-07-04T03:40:22;12.25;;;1.67;;
21196;SDS011;10756;51.014;3.786;2022-07-04T03:42:49;0.15;;;0.15;;
21196;SDS011;10756;51.014;3.786;2022-07-04T03:45:14;0.43;;;0.32;;
21196;SDS011;10756;51.014;3.786;2022-07-04T03:47:40;0.10;;;0.10;;
21196;SDS011;10756;51.014;3.786;2022-07-04T03:50:06;0.00;;;0.00;;
21196;SDS011;10756;51.014;3.786;2022-07-04T03:52:32;2.08;;;0.40;;
21196;SDS011;10756;51.014;3.786;2022-07-04T03:54:58;1.75;;;0.22;;
21196;SDS011;10756;51.014;3.786;2022-07-04T03:57:24;0.30;;;0.30;;
21196;SDS011;10756;51.014;3.786;2022-07-04T03:59:49;0.10;;;0.10;;
21196;SDS011;10756;51.014;3.786;2022-07-04T04:02:15;0.10;;;0.10;;
21196;SDS011;10756;51.014;3.786;2022-07-04T04:04:41;0.65;;;0.32;;
21196;SDS011;10756;51.014;3.786;2022-07-04T04:07:18;0.10;;;0.10;;
21196;SDS011;10756;51.014;3.786;2022-07-04T04:09:43;0.43;;;0.32;;
21196;SDS011;10756;51.014;3.786;2022-07-04T04:12:09;0.10;;;0.10;;
21196;SDS011;10756;51.014;3.786;2022-07-04T04:14:35;0.43;;;0.20;;
21196;SDS011;10756;51.014;3.786;2022-07-04T04:17:00;3.35;;;0.98;;
21196;SDS011;10756;51.014;3.786;2022-07-04T04:19:26;0.10;;;0.10;;
21196;SDS011;10756;51.014;3.786;2022-07-04T04:21:51;0.43;;;0.43;;
21196;SDS011;10756;51.014;3.786;2022-07-04T04:24:17;0.15;;;0.13;;
21196;SDS011;10756;51.014;3.786;2022-07-04T04:26:43;1.75;;;0.70;;
21196;SDS011;10756;51.014;3.786;2022-07-04T04:29:09;1.45;;;1.08;;
21196;SDS011;10756;51.014;3.786;2022-07-04T04:31:34;0.45;;;0.45;;
21196;SDS011;10756;51.014;3.786;2022-07-04T04:34:00;2.13;;;0.55;;
21196;SDS011;10756;51.014;3.786;2022-07-04T04:36:26;0.57;;;0.55;;
21196;SDS011;10756;51.014;3.786;2022-07-04T04:38:52;0.13;;;0.13;;
21196;SDS011;10756;51.014;3.786;2022-07-04T04:41:17;2.67;;;1.00;;
21196;SDS011;10756;51.014;3.786;2022-07-04T04:43:43;2.05;;;1.05;;
21196;SDS011;10756;51.014;3.786;2022-07-04T04:46:09;1.08;;;0.93;;
21196;SDS011;10756;51.014;3.786;2022-07-04T04:48:35;0.90;;;0.90;;
21196;SDS011;10756;51.014;3.786;2022-07-04T04:51:00;2.65;;;1.20;;
21196;SDS011;10756;51.014;3.786;2022-07-04T04:53:26;0.10;;;0.10;;
21196;SDS011;10756;51.014;3.786;2022-07-04T04:55:52;0.10;;;0.10;;
21196;SDS011;10756;51.014;3.786;2022-07-04T04:58:19;0.20;;;0.20;;
21196;SDS011;10756;51.014;3.786;2022-07-04T05:00:45;0.10;;;0.10;;
21196;SDS011;10756;51.014;3.786;2022-07-04T05:03:11;10.52;;;1.30;;
21196;SDS011;10756;51.014;3.786;2022-07-04T05:05:36;3.78;;;1.23;;
21196;SDS011;10756;51.014;3.786;2022-07-04T05:08:02;5.18;;;1.98;;
21196;SDS011;10756;51.014;3.786;2022-07-04T05:10:28;2.25;;;1.27;;
21196;SDS011;10756;51.014;3.786;2022-07-04T05:12:53;0.13;;;0.13;;
21196;SDS011;10756;51.014;3.786;2022-07-04T05:15:20;0.10;;;0.10;;
21196;SDS011;10756;51.014;3.786;2022-07-04T05:17:46;1.13;;;0.63;;
21196;SDS011;10756;51.014;3.786;2022-07-04T05:20:12;0.65;;;0.52;;
21196;SDS011;10756;51.014;3.786;2022-07-04T05:22:38;2.58;;;0.82;;
21196;SDS011;10756;51.014;3.786;2022-07-04T05:25:03;4.00;;;0.60;;
21196;SDS011;10756;51.014;3.786;2022-07-04T05:27:29;1.95;;;0.75;;
21196;SDS011;10756;51.014;3.786;2022-07-04T05:29:56;1.17;;;0.82;;
21196;SDS011;10756;51.014;3.786;2022-07-04T05:32:23;0.57;;;0.50;;
21196;SDS011;10756;51.014;3.786;2022-07-04T05:34:50;8.43;;;1.35;;
21196;SDS011;10756;51.014;3.786;2022-07-04T05:37:15;13.73;;;2.70;;
21196;SDS011;10756;51.014;3.786;2022-07-04T05:39:41;4.30;;;1.25;;
21196;SDS011;10756;51.014;3.786;2022-07-04T05:42:07;1.30;;;0.95;;
21196;SDS011;10756;51.014;3.786;2022-07-04T05:44:32;4.10;;;1.25;;
21196;SDS011;10756;51.014;3.786;2022-07-04T05:46:58;2.90;;;0.85;;
21196;SDS011;10756;51.014;3.786;2022-07-04T05:49:24;0.45;;;0.30;;
21196;SDS011;10756;51.014;3.786;2022-07-04T05:51:49;1.88;;;0.70;;
21196;SDS011;10756;51.014;3.786;2022-07-04T05:54:15;0.17;;;0.17;;
21196;SDS011;10756;51.014;3.786;2022-07-04T05:56:41;0.25;;;0.25;;
21196;SDS011;10756;51.014;3.786;2022-07-04T05:59:07;7.03;;;0.73;;
21196;SDS011;10756;51.014;3.786;2022-07-04T06:01:34;5.15;;;1.55;;
21196;SDS011;10756;51.014;3.786;2022-07-04T06:04:00;8.75;;;3.13;;
21196;SDS011;10756;51.014;3.786;2022-07-04T06:06:26;8.82;;;3.67;;
21196;SDS011;10756;51.014;3.786;2022-07-04T06:08:51;3.00;;;2.10;;
21196;SDS011;10756;51.014;3.786;2022-07-04T06:11:17;8.80;;;3.60;;
21196;SDS011;10756;51.014;3.786;2022-07-04T06:13:43;9.05;;;3.65;;
21196;SDS011;10756;51.014;3.786;2022-07-04T06:16:11;6.28;;;3.15;;
21196;SDS011;10756;51.014;3.786;2022-07-04T06:18:38;8.52;;;3.53;;
21196;SDS011;10756;51.014;3.786;2022-07-04T06:21:04;12.55;;;4.97;;
21196;SDS011;10756;51.014;3.786;2022-07-04T06:23:32;14.98;;;5.53;;
21196;SDS011;10756;51.014;3.786;2022-07-04T06:25:58;15.13;;;6.70;;
21196;SDS011;10756;51.014;3.786;2022-07-04T06:28:24;11.52;;;3.25;;
21196;SDS011;10756;51.014;3.786;2022-07-04T06:30:50;4.78;;;2.33;;
21196;SDS011;10756;51.014;3.786;2022-07-04T06:33:18;7.75;;;3.35;;
21196;SDS011;10756;51.014;3.786;2022-07-04T06:35:44;11.65;;;4.75;;
21196;SDS011;10756;51.014;3.786;2022-07-04T06:38:16;13.60;;;3.35;;
21196;SDS011;10756;51.014;3.786;2022-07-04T06:40:43;6.07;;;2.85;;
21196;SDS011;10756;51.014;3.786;2022-07-04T06:43:10;11.88;;;2.97;;
21196;SDS011;10756;51.014;3.786;2022-07-04T06:45:44;1.02;;;0.88;;
21196;SDS011;10756;51.014;3.786;2022-07-04T06:48:10;2.55;;;1.58;;
21196;SDS011;10756;51.014;3.786;2022-07-04T06:50:36;16.23;;;4.43;;
21196;SDS011;10756;51.014;3.786;2022-07-04T06:53:03;7.85;;;3.17;;
21196;SDS011;10756;51.014;3.786;2022-07-04T06:55:31;13.77;;;3.67;;
21196;SDS011;10756;51.014;3.786;2022-07-04T06:58:07;7.30;;;3.15;;
21196;SDS011;10756;51.014;3.786;2022-07-04T07:00:33;8.00;;;2.67;;
21196;SDS011;10756;51.014;3.786;2022-07-04T07:02:59;0.70;;;0.50;;
21196;SDS011;10756;51.014;3.786;2022-07-04T07:05:29;9.52;;;4.45;;
21196;SDS011;10756;51.014;3.786;2022-07-04T07:08:02;2.30;;;1.30;;
21196;SDS011;10756;51.014;3.786;2022-07-04T07:10:29;2.60;;;2.33;;
21196;SDS011;10756;51.014;3.786;2022-07-04T07:12:57;7.13;;;3.53;;
21196;SDS011;10756;51.014;3.786;2022-07-04T07:15:23;4.97;;;3.50;;
21196;SDS011;10756;51.014;3.786;2022-07-04T07:17:49;15.10;;;6.60;;
21196;SDS011;10756;51.014;3.786;2022-07-04T07:20:14;6.95;;;3.20;;
21196;SDS011;10756;51.014;3.786;2022-07-04T07:22:40;7.88;;;4.05;;
21196;SDS011;10756;51.014;3.786;2022-07-04T07:25:07;2.53;;;1.10;;
21196;SDS011;10756;51.014;3.786;2022-07-04T07:27:36;0.82;;;0.73;;
21196;SDS011;10756;51.014;3.786;2022-07-04T07:30:03;11.23;;;5.60;;
21196;SDS011;10756;51.014;3.786;2022-07-04T07:32:30;20.73;;;6.90;;
21196;SDS011;10756;51.014;3.786;2022-07-04T07:34:56;10.10;;;3.85;;
21196;SDS011;10756;51.014;3.786;2022-07-04T07:37:22;2.83;;;2.05;;
21196;SDS011;10756;51.014;3.786;2022-07-04T07:39:48;13.07;;;4.97;;
21196;SDS011;10756;51.014;3.786;2022-07-04T07:42:14;6.43;;;3.55;;
21196;SDS011;10756;51.014;3.786;2022-07-04T07:44:40;9.60;;;1.85;;
21196;SDS011;10756;51.014;3.786;2022-07-04T07:47:06;0.10;;;0.10;;
21196;SDS011;10756;51.014;3.786;2022-07-04T07:49:32;4.25;;;2.17;;
21196;SDS011;10756;51.014;3.786;2022-07-04T07:51:58;13.88;;;5.75;;
21196;SDS011;10756;51.014;3.786;2022-07-04T07:54:23;8.35;;;2.88;;
21196;SDS011;10756;51.014;3.786;2022-07-04T07:56:49;0.28;;;0.28;;
21196;SDS011;10756;51.014;3.786;2022-07-04T07:59:15;4.82;;;1.65;;
21196;SDS011;10756;51.014;3.786;2022-07-04T08:01:41;1.90;;;1.27;;
21196;SDS011;10756;51.014;3.786;2022-07-04T08:04:07;1.77;;;1.50;;
21196;SDS011;10756;51.014;3.786;2022-07-04T08:06:44;3.65;;;1.30;;
21196;SDS011;10756;51.014;3.786;2022-07-04T08:09:10;10.15;;;3.15;;
21196;SDS011;10756;51.014;3.786;2022-07-04T08:11:36;0.57;;;0.57;;
21196;SDS011;10756;51.014;3.786;2022-07-04T08:14:01;0.10;;;0.10;;
21196;SDS011;10756;51.014;3.786;2022-07-04T08:16:33;5.57;;;2.83;;
21196;SDS011;10756;51.014;3.786;2022-07-04T08:18:59;8.68;;;4.45;;
21196;SDS011;10756;51.014;3.786;2022-07-04T08:21:25;0.25;;;0.20;;
21196;SDS011;10756;51.014;3.786;2022-07-04T08:23:51;8.98;;;2.17;;
21196;SDS011;10756;51.014;3.786;2022-07-04T08:26:17;0.20;;;0.20;;
21196;SDS011;10756;51.014;3.786;2022-07-04T08:28:43;0.88;;;0.80;;
21196;SDS011;10756;51.014;3.786;2022-07-04T08:31:09;0.28;;;0.28;;
21196;SDS011;10756;51.014;3.786;2022-07-04T08:33:34;0.00;;;0.00;;
21196;SDS011;10756;51.014;3.786;2022-07-04T08:36:00;13.13;;;5.22;;
21196;SDS011;10756;51.014;3.786;2022-07-04T08:38:25;1.25;;;1.05;;
21196;SDS011;10756;51.014;3.786;2022-07-04T08:40:52;6.88;;;2.95;;
21196;SDS011;10756;51.014;3.786;2022-07-04T08:43:22;0.30;;;0.30;;
21196;SDS011;10756;51.014;3.786;2022-07-04T08:45:52;0.15;;;0.15;;
21196;SDS011;10756;51.014;3.786;2022-07-04T08:48:18;0.10;;;0.10;;
21196;SDS011;10756;51.014;3.786;2022-07-04T08:50:50;0.93;;;0.68;;
21196;SDS011;10756;51.014;3.786;2022-07-04T08:53:20;0.52;;;0.52;;
21196;SDS011;10756;51.014;3.786;2022-07-04T08:55:51;5.93;;;1.48;;
21196;SDS011;10756;51.014;3.786;2022-07-04T08:58:29;0.00;;;0.00;;
21196;SDS011;10756;51.014;3.786;2022-07-04T09:00:56;4.05;;;1.08;;
21196;SDS011;10756;51.014;3.786;2022-07-04T09:03:29;2.53;;;1.65;;
21196;SDS011;10756;51.014;3.786;2022-07-04T09:05:56;5.10;;;0.50;;
21196;SDS011;10756;51.014;3.786;2022-07-04T09:08:22;3.40;;;0.85;;
21196;SDS011;10756;51.014;3.786;2022-07-04T09:10:49;2.65;;;0.63;;
21196;SDS011;10756;51.014;3.786;2022-07-04T09:13:19;0.10;;;0.10;;
21196;SDS011;10756;51.014;3.786;2022-07-04T09:15:46;1.77;;;1.23;;
21196;SDS011;10756;51.014;3.786;2022-07-04T09:20:55;2.60;;;1.15;;
21196;SDS011;10756;51.014;3.786;2022-07-04T09:31:23;3.13;;;0.75;;
21196;SDS011;10756;51.014;3.786;2022-07-04T09:36:23;1.35;;;0.73;;
21196;SDS011;10756;51.014;3.786;2022-07-04T09:44:23;2.38;;;0.77;;
21196;SDS011;10756;51.014;3.786;2022-07-04T09:47:32;3.65;;;1.65;;
21196;SDS011;10756;51.014;3.786;2022-07-04T09:50:00;1.67;;;0.63;;
21196;SDS011;10756;51.014;3.786;2022-07-04T09:52:30;0.30;;;0.30;;
21196;SDS011;10756;51.014;3.786;2022-07-04T09:55:00;4.07;;;3.67;;
21196;SDS011;10756;51.014;3.786;2022-07-04T09:57:30;2.22;;;0.90;;
21196;SDS011;10756;51.014;3.786;2022-07-04T10:00:15;0.45;;;0.45;;
21196;SDS011;10756;51.014;3.786;2022-07-04T10:02:52;4.82;;;1.77;;
21196;SDS011;10756;51.014;3.786;2022-07-04T10:05:41;1.30;;;0.55;;
21196;SDS011;10756;51.014;3.786;2022-07-04T10:08:07;0.20;;;0.20;;
21196;SDS011;10756;51.014;3.786;2022-07-04T10:10:34;3.85;;;1.65;;
21196;SDS011;10756;51.014;3.786;2022-07-04T10:15:32;0.00;;;0.00;;
21196;SDS011;10756;51.014;3.786;2022-07-04T10:18:00;0.73;;;0.63;;
21196;SDS011;10756;51.014;3.786;2022-07-04T10:20:26;0.75;;;0.65;;
21196;SDS011;10756;51.014;3.786;2022-07-04T10:22:52;5.65;;;0.45;;
21196;SDS011;10756;51.014;3.786;2022-07-04T10:25:18;0.65;;;0.40;;
21196;SDS011;10756;51.014;3.786;2022-07-04T10:27:44;2.83;;;1.25;;
21196;SDS011;10756;51.014;3.786;2022-07-04T10:30:12;0.00;;;0.00;;
21196;SDS011;10756;51.014;3.786;2022-07-04T10:32:40;2.55;;;1.25;;
21196;SDS011;10756;51.014;3.786;2022-07-04T10:35:12;0.70;;;0.55;;
21196;SDS011;10756;51.014;3.786;2022-07-04T10:51:42;2.63;;;1.58;;
21196;SDS011;10756;51.014;3.786;2022-07-04T10:57:58;3.95;;;1.60;;
21196;SDS011;10756;51.014;3.786;2022-07-04T11:00:24;4.65;;;1.58;;
21196;SDS011;10756;51.014;3.786;2022-07-04T11:02:49;0.57;;;0.17;;
21196;SDS011;10756;51.014;3.786;2022-07-04T11:08:24;0.60;;;0.60;;
21196;SDS011;10756;51.014;3.786;2022-07-04T11:10:49;2.83;;;1.25;;
21196;SDS011;10756;51.014;3.786;2022-07-04T11:13:30;9.57;;;2.00;;
21196;SDS011;10756;51.014;3.786;2022-07-04T11:16:02;4.65;;;1.90;;
21196;SDS011;10756;51.014;3.786;2022-07-04T11:18:29;4.00;;;1.63;;
21196;SDS011;10756;51.014;3.786;2022-07-04T11:20:58;0.40;;;0.40;;
21196;SDS011;10756;51.014;3.786;2022-07-04T11:23:26;6.25;;;1.70;;
21196;SDS011;10756;51.014;3.786;2022-07-04T11:25:52;1.00;;;0.85;;
21196;SDS011;10756;51.014;3.786;2022-07-04T11:30:56;3.33;;;0.90;;
21196;SDS011;10756;51.014;3.786;2022-07-04T11:33:25;0.80;;;0.55;;
21196;SDS011;10756;51.014;3.786;2022-07-04T11:44:09;0.85;;;0.28;;
21196;SDS011;10756;51.014;3.786;2022-07-04T11:46:46;0.65;;;0.55;;
21196;SDS011;10756;51.014;3.786;2022-07-04T11:49:12;1.65;;;0.88;;
21196;SDS011;10756;51.014;3.786;2022-07-04T11:51:42;2.25;;;1.33;;
21196;SDS011;10756;51.014;3.786;2022-07-04T11:54:09;1.73;;;0.85;;
21196;SDS011;10756;51.014;3.786;2022-07-04T11:56:38;0.20;;;0.13;;
21196;SDS011;10756;51.014;3.786;2022-07-04T11:59:10;0.40;;;0.40;;
21196;SDS011;10756;51.014;3.786;2022-07-04T12:01:38;0.75;;;0.45;;
21196;SDS011;10756;51.014;3.786;2022-07-04T12:06:48;0.10;;;0.10;;
21196;SDS011;10756;51.014;3.786;2022-07-04T12:09:17;0.45;;;0.28;;
21196;SDS011;10756;51.014;3.786;2022-07-04T12:14:24;1.33;;;0.65;;
21196;SDS011;10756;51.014;3.786;2022-07-04T12:19:35;1.00;;;0.47;;
21196;SDS011;10756;51.014;3.786;2022-07-04T12:22:06;1.50;;;0.95;;
21196;SDS011;10756;51.014;3.786;2022-07-04T12:27:16;0.45;;;0.28;;
21196;SDS011;10756;51.014;3.786;2022-07-04T12:29:51;3.25;;;1.50;;
21196;SDS011;10756;51.014;3.786;2022-07-04T12:32:18;0.00;;;0.00;;
21196;SDS011;10756;51.014;3.786;2022-07-04T12:34:44;3.97;;;0.80;;
21196;SDS011;10756;51.014;3.786;2022-07-04T12:37:11;0.98;;;0.68;;
21196;SDS011;10756;51.014;3.786;2022-07-04T12:39:41;5.30;;;1.30;;
21196;SDS011;10756;51.014;3.786;2022-07-04T12:42:17;0.98;;;0.80;;
21196;SDS011;10756;51.014;3.786;2022-07-04T12:44:45;2.83;;;1.50;;
21196;SDS011;10756;51.014;3.786;2022-07-04T12:47:14;0.57;;;0.57;;
21196;SDS011;10756;51.014;3.786;2022-07-04T12:49:43;1.30;;;1.13;;
21196;SDS011;10756;51.014;3.786;2022-07-04T12:52:16;0.00;;;0.00;;
21196;SDS011;10756;51.014;3.786;2022-07-04T12:54:43;0.60;;;0.40;;
21196;SDS011;10756;51.014;3.786;2022-07-04T12:57:28;0.63;;;0.35;;
21196;SDS011;10756;51.014;3.786;2022-07-04T12:59:54;3.42;;;0.95;;
21196;SDS011;10756;51.014;3.786;2022-07-04T13:02:20;1.65;;;1.10;;
21196;SDS011;10756;51.014;3.786;2022-07-04T13:04:51;3.03;;;1.40;;
21196;SDS011;10756;51.014;3.786;2022-07-04T13:07:55;1.23;;;0.70;;
21196;SDS011;10756;51.014;3.786;2022-07-04T13:10:21;0.00;;;0.00;;
21196;SDS011;10756;51.014;3.786;2022-07-04T13:12:47;5.40;;;1.23;;
21196;SDS011;10756;51.014;3.786;2022-07-04T13:15:12;1.65;;;0.30;;
21196;SDS011;10756;51.014;3.786;2022-07-04T13:17:41;0.73;;;0.45;;
21196;SDS011;10756;51.014;3.786;2022-07-04T13:20:19;2.45;;;0.80;;
21196;SDS011;10756;51.014;3.786;2022-07-04T13:25:30;0.20;;;0.20;;
21196;SDS011;10756;51.014;3.786;2022-07-04T13:27:55;0.10;;;0.10;;
21196;SDS011;10756;51.014;3.786;2022-07-04T13:30:39;0.55;;;0.20;;
21196;SDS011;10756;51.014;3.786;2022-07-04T13:33:05;2.47;;;0.28;;
21196;SDS011;10756;51.014;3.786;2022-07-04T13:35:31;0.10;;;0.10;;
21196;SDS011;10756;51.014;3.786;2022-07-04T13:37:56;0.17;;;0.10;;
21196;SDS011;10756;51.014;3.786;2022-07-04T13:40:22;0.20;;;0.15;;
21196;SDS011;10756;51.014;3.786;2022-07-04T13:42:48;2.28;;;0.77;;
21196;SDS011;10756;51.014;3.786;2022-07-04T13:45:28;1.90;;;0.52;;
21196;SDS011;10756;51.014;3.786;2022-07-04T13:47:54;0.00;;;0.00;;
21196;SDS011;10756;51.014;3.786;2022-07-04T13:50:20;0.22;;;0.13;;
21196;SDS011;10756;51.014;3.786;2022-07-04T13:52:47;0.00;;;0.00;;
21196;SDS011;10756;51.014;3.786;2022-07-04T13:55:12;0.00;;;0.00;;
21196;SDS011;10756;51.014;3.786;2022-07-04T13:57:38;0.55;;;0.52;;
21196;SDS011;10756;51.014;3.786;2022-07-04T14:00:04;0.40;;;0.30;;
21196;SDS011;10756;51.014;3.786;2022-07-04T14:02:37;1.40;;;0.70;;
21196;SDS011;10756;51.014;3.786;2022-07-04T14:05:03;0.00;;;0.00;;
21196;SDS011;10756;51.014;3.786;2022-07-04T14:07:31;2.22;;;1.08;;
21196;SDS011;10756;51.014;3.786;2022-07-04T14:09:58;0.93;;;0.52;;
21196;SDS011;10756;51.014;3.786;2022-07-04T14:12:25;1.85;;;0.45;;
21196;SDS011;10756;51.014;3.786;2022-07-04T14:14:50;3.33;;;0.52;;
21196;SDS011;10756;51.014;3.786;2022-07-04T14:17:16;2.08;;;0.88;;
21196;SDS011;10756;51.014;3.786;2022-07-04T14:19:42;1.50;;;0.75;;
21196;SDS011;10756;51.014;3.786;2022-07-04T14:22:20;2.42;;;0.63;;
21196;SDS011;10756;51.014;3.786;2022-07-04T14:27:31;0.00;;;0.00;;
21196;SDS011;10756;51.014;3.786;2022-07-04T14:29:57;0.30;;;0.30;;
21196;SDS011;10756;51.014;3.786;2022-07-04T14:32:22;1.45;;;0.40;;
21196;SDS011;10756;51.014;3.786;2022-07-04T14:34:48;0.00;;;0.00;;
21196;SDS011;10756;51.014;3.786;2022-07-04T14:37:13;0.00;;;0.00;;
21196;SDS011;10756;51.014;3.786;2022-07-04T14:39:39;0.15;;;0.00;;
21196;SDS011;10756;51.014;3.786;2022-07-04T14:42:05;1.98;;;0.60;;
21196;SDS011;10756;51.014;3.786;2022-07-04T14:44:31;0.00;;;0.00;;
21196;SDS011;10756;51.014;3.786;2022-07-04T14:47:00;2.38;;;0.65;;
21196;SDS011;10756;51.014;3.786;2022-07-04T14:49:27;0.28;;;0.08;;
21196;SDS011;10756;51.014;3.786;2022-07-04T14:51:52;0.00;;;0.00;;
21196;SDS011;10756;51.014;3.786;2022-07-04T14:54:19;0.65;;;0.30;;
21196;SDS011;10756;51.014;3.786;2022-07-04T14:56:44;0.10;;;0.10;;
21196;SDS011;10756;51.014;3.786;2022-07-04T14:59:10;0.00;;;0.00;;
21196;SDS011;10756;51.014;3.786;2022-07-04T15:01:36;0.00;;;0.00;;
21196;SDS011;10756;51.014;3.786;2022-07-04T15:04:02;0.00;;;0.00;;
21196;SDS011;10756;51.014;3.786;2022-07-04T15:06:28;0.00;;;0.00;;
21196;SDS011;10756;51.014;3.786;2022-07-04T15:08:53;0.10;;;0.10;;
21196;SDS011;10756;51.014;3.786;2022-07-04T15:11:19;0.00;;;0.00;;
21196;SDS011;10756;51.014;3.786;2022-07-04T15:13:45;1.75;;;0.20;;
21196;SDS011;10756;51.014;3.786;2022-07-04T15:16:10;2.10;;;0.90;;
21196;SDS011;10756;51.014;3.786;2022-07-04T15:18:36;0.20;;;0.20;;
21196;SDS011;10756;51.014;3.786;2022-07-04T15:21:02;1.95;;;0.55;;
21196;SDS011;10756;51.014;3.786;2022-07-04T15:23:38;0.00;;;0.00;;
21196;SDS011;10756;51.014;3.786;2022-07-04T15:26:14;2.20;;;0.65;;
21196;SDS011;10756;51.014;3.786;2022-07-04T15:28:39;3.05;;;0.98;;
21196;SDS011;10756;51.014;3.786;2022-07-04T15:31:05;0.38;;;0.22;;
21196;SDS011;10756;51.014;3.786;2022-07-04T15:33:31;0.00;;;0.00;;
21196;SDS011;10756;51.014;3.786;2022-07-04T15:35:56;0.20;;;0.20;;
21196;SDS011;10756;51.014;3.786;2022-07-04T15:38:22;1.52;;;0.65;;
21196;SDS011;10756;51.014;3.786;2022-07-04T15:40:48;0.60;;;0.57;;
21196;SDS011;10756;51.014;3.786;2022-07-04T15:43:14;0.13;;;0.10;;
21196;SDS011;10756;51.014;3.786;2022-07-04T15:45:40;0.38;;;0.38;;
21196;SDS011;10756;51.014;3.786;2022-07-04T15:48:06;0.10;;;0.10;;
21196;SDS011;10756;51.014;3.786;2022-07-04T15:50:32;0.30;;;0.30;;
21196;SDS011;10756;51.014;3.786;2022-07-04T15:52:58;0.30;;;0.30;;
21196;SDS011;10756;51.014;3.786;2022-07-04T15:55:23;0.13;;;0.13;;
21196;SDS011;10756;51.014;3.786;2022-07-04T15:57:49;0.08;;;0.08;;
21196;SDS011;10756;51.014;3.786;2022-07-04T16:00:15;0.50;;;0.22;;
21196;SDS011;10756;51.014;3.786;2022-07-04T16:02:41;0.60;;;0.40;;